Station info - map view · info · telemetry · weather · raw · status · beacons · messages · bulletins · browse · moving · my account
Callsign, ship name or locator: Clear       
It is possible to search using wildcards (*?) after a prefix. Example: OH*
APRS station IZ4FUA-8 - show graphs
Map loading...
Mic-E message: Off duty
Location: 45°00.84' N 9°51.42' E - locator JN45WA23UI - show map - static map
2.5 miles South bearing 196° from Caorso, Provincia di Piacenza, Emilia-Romagna, Italy [?]
3.0 miles Northeast bearing 25° from Cadeo, Provincia di Piacenza, Emilia-Romagna, Italy
44.9 miles Southeast bearing 134° from Milan, Province of Milan, Lombardy, Italy
61.7 miles Northeast bearing 47° from Genova, Province of Genoa, Liguria, Italy
Last position: 2019-01-13 12:53:20 EST (3d 2h31m ago)
2019-01-13 18:53:20 CET local time at Caorso, Italy [?]
Altitude: 144 ft
Course: 35°
Device: Yaesu: FTM-400DR (rig)
Last path: IZ4FUA-8>TUPPX4 via qAR,IK2ILW
Positions stored: 3081
Packet rate: 68 seconds between packets on average during 2669 seconds.
Other SSIDs: IZ4FUA-7
Stations near current position of IZ4FUA-8 - show more
callsign distance last heard - EST      callsign distance last heard - EST
IU2DXM6.7 miles 5°2019-01-16 15:20:15 IR2UDL-R07.9 miles 289°2019-01-16 15:02:33
IR2UDL B7.9 miles 289°2019-01-16 15:08:51 IR2UDL-B7.9 miles 289°2019-01-16 15:09:01
P15109259.3 miles 2°2018-12-19 08:03:09 IU4DKT B9.4 miles 245°2019-01-06 11:43:47
IU4DKT-B9.4 miles 245°2019-01-06 11:43:57 IZ4UBC9.8 miles 243°2018-12-24 02:16:24
IK2UCC-H09.8 miles 65°2019-01-16 15:01:44 IK2PCG-H111.0 miles 44°2019-01-09 12:30:24
IW2OFO11.2 miles 26°2019-01-15 05:20:05 EL-IU2GDE11.7 miles 46°2019-01-16 15:17:24
IU2GDE-H211.7 miles 46°2019-01-16 15:01:27 IU2GDE11.7 miles 46°2019-01-05 10:06:56
IU2GDE-511.7 miles 47°2019-01-01 11:48:02 IU2GDE-111.7 miles 46°2019-01-13 05:28:31
FW389312.1 miles 231°2019-01-16 15:16:17 IR2DQ-1012.6 miles 46°2019-01-16 15:20:41
IR2DQ12.8 miles 35°2019-01-16 15:08:28 IU2GDE-H113.2 miles 46°2019-01-16 09:31:34
Stations which heard IZ4FUA-8 directly on radio –
callsign pkts first heard - EST last heard longest (tx => rx) longest at - EST
IR2AO 8 2019-01-01 04:26:31 2019-01-06 12:17:16 JN44SU > JN45PM 47.5 miles 347° 2019-01-01 04:26:31
IR2UBX-11 21 2019-01-01 04:21:27 2019-01-13 12:23:51 JN44PR > JN45MQ 67.0 miles 350° 2019-01-06 04:30:39
IR4AN 5 2019-01-01 11:47:45 2019-01-13 12:52:20 JN45VA > JN54FK 51.7 miles 139° 2019-01-06 12:22:55
IK3XTM 1 2019-01-01 11:41:41 2019-01-01 11:41:41 JN44UX > JN55LP 74.5 miles 52° 2019-01-01 11:41:41
IR2BZ 65 2019-01-01 04:09:24 2019-01-13 12:52:20 JN44QS > JN45XO 63.3 miles 28° 2019-01-06 04:10:35
IR2Y 7 2019-01-01 04:43:38 2019-01-06 12:06:03 JN44RS > JN55EK 62.9 miles 45° 2019-01-01 04:50:50
IW2HUZ-11 13 2019-01-01 04:11:15 2019-01-13 03:33:17 JN44TV > JN45MU 71.1 miles 339° 2019-01-01 04:18:22
IR2UGB 4 2019-01-06 04:22:38 2019-01-06 04:30:37 JN44PR > JN45IC 39.7 miles 311° 2019-01-06 04:30:37
IW2GOB-2 3 2019-01-01 11:18:44 2019-01-06 11:37:15 JN44QS > JN45SH 35.7 miles 9° 2019-01-06 11:37:15
IR1DM 1 2019-01-06 04:30:39 2019-01-06 04:30:39 JN44PR > JN44JS 24.5 miles 272° 2019-01-06 04:30:39
IR2S 81 2019-01-01 04:09:23 2019-01-13 12:53:20 JN44QS > JN55DQ 76.1 miles 34° 2019-01-06 11:28:55
IR2CW 2 2019-01-01 04:43:38 2019-01-01 04:46:42 JN44RS > JN45NE 31.6 miles 329° 2019-01-01 04:46:42
IR2CV 8 2019-01-06 04:04:30 2019-01-06 11:55:27 JN44PS > JN55JC 75.7 miles 72° 2019-01-06 04:23:38
IR2BW 5 2019-01-01 04:33:30 2019-01-01 11:20:44 JN44RS > JN55DN 67.2 miles 35° 2019-01-01 04:47:46
IR2DF 8 2019-01-01 04:47:46 2019-01-13 03:41:17 JN44RS > JN55AS 72.4 miles 21° 2019-01-01 04:47:46
IK2ILW 12 2019-01-01 11:21:44 2019-01-13 12:53:20 JN44SV > JN45VV 70.5 miles 9° 2019-01-01 11:21:44
IR2UFW 6 2019-01-01 04:39:34 2019-01-13 03:54:21 JN44RT > JN45LI 46.2 miles 328° 2019-01-01 04:39:34
IR2BY 4 2019-01-01 04:43:38 2019-01-01 04:48:50 JN44RS > JN55BQ 70.3 miles 25° 2019-01-01 04:48:50
IR2UCL 17 2019-01-01 04:38:34 2019-01-13 12:29:55 JN44RS > JN45UP 60.9 miles 10° 2019-01-01 04:49:51
IU2GOH 3 2019-01-01 04:40:34 2019-01-01 04:48:50 JN44RS > JN55BL 57.4 miles 34° 2019-01-01 04:48:50
IR2UEZ 12 2019-01-01 04:42:34 2019-01-13 12:08:51 JN44RS > JN45JP 68.3 miles 331° 2019-01-01 04:46:42
IQ3VO 30 2019-01-01 04:40:35 2019-01-13 12:49:20 JN44PS > JN55MQ 107.4 miles 52° 2019-01-06 04:23:38
IU2GED 1 2019-01-01 04:47:46 2019-01-01 04:47:46 JN44RS > JN45XV 80.8 miles 16° 2019-01-01 04:47:46
IR2UFH 5 2019-01-01 04:43:38 2019-01-06 04:28:33 JN44RS > JN45KG 45.0 miles 317° 2019-01-01 04:46:42
IR2UGD 6 2019-01-01 04:20:26 2019-01-13 12:09:51 JN44QS > JN45PJ 43.8 miles 354° 2019-01-06 11:32:03
IR2DQ 18 2019-01-01 11:45:41 2019-01-13 12:52:20 JN44SV > JN55AD 28.9 miles 47° 2019-01-13 03:41:17
IR2UEI 4 2019-01-01 04:46:42 2019-01-06 04:30:37 JN44RS > JN45JL 57.0 miles 326° 2019-01-01 04:46:42
IR2AL 8 2019-01-01 04:16:22 2019-01-13 12:31:55 JN44SU > JN45OL 45.6 miles 338° 2019-01-01 11:19:44
IW2GOB-12 20 2019-01-01 04:32:53 2019-01-13 12:50:21 JN44PS > JN45SH 39.2 miles 16° 2019-01-06 04:26:23
IZ2DDY 11 2019-01-01 04:09:25 2019-01-13 03:33:19 JN44QS > JN45SH 38.5 miles 10° 2019-01-06 11:22:36
IR2BP 36 2019-01-01 04:11:15 2019-01-13 12:50:20 JN44RS > JN55DN 66.0 miles 37° 2019-01-01 04:48:50

Only position packets which were originated by the station are shown here. The range statistics show some extra long hops, because some digipeaters do not correctly add themselves to the digipeater path. Please check the raw packets.
About this site
This page shows real-time information collected from the Automatic Position Reporting System Internet network (APRS-IS). APRS is used by amateur (ham) radio operators to transmit real-time position information, weather data, telemetry and messages over the radio. A vehicle equipped with a GPS receiver, a VHF transmitter or HF transceiver and a small computer device called a tracker transmits it's location, speed and course in a small data packet, which is then received by a nearby iGate receiving site which forwards the packet on the Internet. Systems connected to the Internet can send information on the APRS-IS without a radio transmitter, or collect and display information transmitted anywhere in the world.
FAQ · Blog · Discussion group · Linking to aprs.fi · AIS sites · Service status · Database statistics · Advertising on aprs.fi · Technical details · API · Change log · Planned changes · Credits and thanks · Terms Of Service · iPhone/iPad APRS